createdAt,value
2019-05-10T00:01:01.467Z,13.20
2019-05-10T00:03:48.149Z,13.20
2019-05-10T00:06:34.894Z,13.20
2019-05-10T00:09:04.416Z,13.20
2019-05-10T00:11:49.375Z,13.30
2019-05-10T00:14:36.992Z,13.40
2019-05-10T00:17:07.349Z,13.30
2019-05-10T00:19:36.054Z,13.30
2019-05-10T00:22:04.794Z,13.30
2019-05-10T00:24:33.427Z,13.30
2019-05-10T00:27:02.353Z,13.30
2019-05-10T00:29:30.892Z,13.40
2019-05-10T00:31:59.724Z,13.30
2019-05-10T00:34:28.271Z,13.40
2019-05-10T00:36:56.840Z,13.40
2019-05-10T00:39:25.543Z,13.40
2019-05-10T00:41:54.138Z,13.40
2019-05-10T00:44:22.881Z,13.50
2019-05-10T00:46:51.542Z,13.50
2019-05-10T00:49:20.147Z,13.50
2019-05-10T00:51:48.876Z,13.50
2019-05-10T00:54:17.632Z,13.50
2019-05-10T00:56:46.352Z,13.50
2019-05-10T00:59:14.926Z,13.50
2019-05-10T01:01:43.523Z,13.60
2019-05-10T01:04:12.169Z,13.60
2019-05-10T01:06:40.814Z,13.60
2019-05-10T01:09:09.381Z,13.60
2019-05-10T01:11:38.456Z,13.50
2019-05-10T01:14:07.113Z,13.50
2019-05-10T01:16:35.706Z,13.50
2019-05-10T01:19:04.425Z,13.50
2019-05-10T01:21:33.002Z,13.50
2019-05-10T01:24:01.645Z,13.40
2019-05-10T01:26:30.305Z,13.40
2019-05-10T01:28:59.043Z,13.40
2019-05-10T01:31:27.739Z,13.40
2019-05-10T01:33:56.343Z,13.40
2019-05-10T01:36:25.066Z,13.40
2019-05-10T01:38:53.864Z,13.30
2019-05-10T01:41:22.550Z,13.40
2019-05-10T01:43:51.278Z,13.40
2019-05-10T01:46:19.915Z,13.30
2019-05-10T01:48:48.487Z,13.20
2019-05-10T01:51:17.163Z,13.20
2019-05-10T01:53:45.827Z,13.20
2019-05-10T01:56:14.529Z,13.20
2019-05-10T01:58:43.131Z,13.30
2019-05-10T02:01:11.781Z,13.30
2019-05-10T02:03:40.403Z,13.30
2019-05-10T02:06:09.087Z,13.20
2019-05-10T02:08:37.751Z,13.20
2019-05-10T02:11:06.427Z,13.20
2019-05-10T02:13:35.167Z,13.20
2019-05-10T02:16:03.827Z,13.10
2019-05-10T02:18:32.502Z,13.00
2019-05-10T02:21:01.132Z,12.90
2019-05-10T02:23:29.755Z,12.80
2019-05-10T02:26:08.938Z,12.70
2019-05-10T02:28:28.760Z,12.60
2019-05-10T02:30:57.396Z,12.50
2019-05-10T02:33:26.057Z,12.50
2019-05-10T02:35:54.828Z,12.50
2019-05-10T02:38:23.390Z,12.40
2019-05-10T02:40:53.109Z,12.40
2019-05-10T02:43:21.802Z,12.40
2019-05-10T02:45:50.435Z,12.40
2019-05-10T02:48:19.129Z,12.40
2019-05-10T02:50:47.783Z,12.40
2019-05-10T02:53:17.010Z,12.30
2019-05-10T02:55:45.793Z,12.30
2019-05-10T02:58:15.585Z,12.20
2019-05-10T03:00:46.662Z,12.20
2019-05-10T03:03:17.703Z,12.20
2019-05-10T03:05:48.646Z,12.20
2019-05-10T03:08:17.527Z,12.20
2019-05-10T03:10:57.158Z,12.20
2019-05-10T03:13:28.799Z,12.20
2019-05-10T03:15:59.205Z,12.20
2019-05-10T03:18:31.163Z,12.20
2019-05-10T03:21:01.987Z,12.30
2019-05-10T03:23:30.896Z,12.30
2019-05-10T03:25:59.956Z,12.40
2019-05-10T03:28:28.965Z,12.50
2019-05-10T03:30:57.808Z,12.50
2019-05-10T03:33:26.441Z,12.50
2019-05-10T03:35:55.515Z,12.60
2019-05-10T03:38:24.228Z,12.60
2019-05-10T03:40:53.556Z,12.60
2019-05-10T03:43:22.421Z,12.70
2019-05-10T03:45:51.046Z,12.70
2019-05-10T03:48:19.650Z,12.80
2019-05-10T03:50:48.491Z,12.80
2019-05-10T03:53:17.070Z,12.90
2019-05-10T03:55:45.726Z,12.90
2019-05-10T03:58:14.376Z,13.00
2019-05-10T04:00:43.088Z,13.00
2019-05-10T04:03:11.748Z,13.10
2019-05-10T04:05:40.589Z,13.20
2019-05-10T04:08:09.213Z,13.20
2019-05-10T04:10:37.968Z,13.30
2019-05-10T04:13:06.542Z,13.30
2019-05-10T04:15:35.225Z,13.40
2019-05-10T04:18:03.932Z,13.50
2019-05-10T04:20:32.690Z,13.60
2019-05-10T04:23:01.247Z,13.60
2019-05-10T04:25:29.807Z,13.70
2019-05-10T04:27:58.416Z,13.80
2019-05-10T04:30:31.545Z,13.90
2019-05-10T04:32:57.322Z,13.90
2019-05-10T04:35:25.932Z,14.00
2019-05-10T04:37:54.709Z,14.00
2019-05-10T04:40:23.298Z,14.00
2019-05-10T04:42:51.901Z,14.00
2019-05-10T04:45:20.636Z,14.00
2019-05-10T04:47:49.217Z,14.00
2019-05-10T04:50:17.858Z,14.00
2019-05-10T04:52:46.470Z,14.00
2019-05-10T04:55:15.115Z,14.00
2019-05-10T04:57:50.403Z,14.10
2019-05-10T05:00:15.716Z,14.10
2019-05-10T05:02:44.346Z,14.20
2019-05-10T05:05:13.584Z,14.30
2019-05-10T05:07:42.282Z,14.40
2019-05-10T05:10:11.054Z,14.50
2019-05-10T05:12:39.668Z,14.60
2019-05-10T05:15:09.081Z,14.70
2019-05-10T05:17:37.721Z,14.80
2019-05-10T05:20:06.853Z,14.90
2019-05-10T05:22:35.539Z,15.00
2019-05-10T05:25:06.147Z,15.20
2019-05-10T05:27:34.811Z,15.30
2019-05-10T05:30:08.262Z,15.40
2019-05-10T05:32:38.601Z,15.50
2019-05-10T05:35:07.406Z,15.60
2019-05-10T05:37:36.082Z,15.70
2019-05-10T05:40:09.034Z,15.90
2019-05-10T05:42:37.626Z,16.00
2019-05-10T05:45:08.406Z,16.20
2019-05-10T05:47:37.494Z,16.30
2019-05-10T05:50:07.782Z,16.40
2019-05-10T05:52:36.379Z,16.40
2019-05-10T05:55:08.239Z,16.40
2019-05-10T05:57:37.847Z,16.30
2019-05-10T06:00:07.577Z,16.20
2019-05-10T06:02:44.315Z,16.00
2019-05-10T06:05:06.862Z,15.90
2019-05-10T06:07:38.076Z,15.90
2019-05-10T06:10:10.094Z,15.80
2019-05-10T06:12:37.467Z,15.90
2019-05-10T06:15:07.471Z,15.90
2019-05-10T06:17:36.082Z,15.80
2019-05-10T06:20:07.631Z,15.90
2019-05-10T06:22:38.352Z,15.80
2019-05-10T06:25:08.112Z,15.80
2019-05-10T06:27:41.292Z,15.70
2019-05-10T06:30:07.569Z,15.80
2019-05-10T06:32:36.201Z,15.90
2019-05-10T06:35:06.643Z,16.00
2019-05-10T06:37:35.324Z,16.10
2019-05-10T06:40:06.243Z,16.20
2019-05-10T06:42:36.171Z,16.40
2019-05-10T06:45:14.376Z,16.60
2019-05-10T06:47:42.226Z,16.70
2019-05-10T06:50:09.507Z,16.70
2019-05-10T06:52:38.280Z,16.70
2019-05-10T06:55:08.719Z,16.80
2019-05-10T06:57:37.344Z,16.70
2019-05-10T07:00:08.220Z,16.60
2019-05-10T07:02:37.180Z,16.60
2019-05-10T07:05:06.837Z,16.50
2019-05-10T07:07:44.061Z,16.40
2019-05-10T07:10:15.739Z,16.50
2019-05-10T07:12:38.683Z,16.40
2019-05-10T07:15:08.630Z,16.40
2019-05-10T07:17:45.248Z,16.40
2019-05-10T07:20:09.092Z,16.40
2019-05-10T07:22:37.873Z,16.40
2019-05-10T07:25:07.557Z,16.40
2019-05-10T07:27:38.735Z,16.30
2019-05-10T07:30:08.234Z,16.10
2019-05-10T07:32:37.233Z,16.00
2019-05-10T07:35:07.402Z,16.00
2019-05-10T07:37:36.112Z,16.00
2019-05-10T07:40:07.555Z,16.00
2019-05-10T07:42:39.791Z,16.10
2019-05-10T07:45:09.839Z,16.10
2019-05-10T07:47:38.403Z,16.20
2019-05-10T07:50:09.749Z,16.30
2019-05-10T07:52:43.462Z,16.40
2019-05-10T07:55:10.544Z,16.50
2019-05-10T07:57:39.398Z,16.50
2019-05-10T08:00:09.197Z,16.70
2019-05-10T08:02:38.612Z,16.70
2019-05-10T08:05:11.022Z,16.70
2019-05-10T08:07:38.912Z,16.60
2019-05-10T08:10:08.783Z,16.60
2019-05-10T08:12:41.332Z,16.60
2019-05-10T08:15:09.304Z,16.50
2019-05-10T08:17:43.194Z,16.50
2019-05-10T08:20:16.300Z,16.40
2019-05-10T08:22:44.875Z,16.30
2019-05-10T08:25:12.756Z,16.20
2019-05-10T08:27:43.999Z,16.20
2019-05-10T08:30:22.620Z,16.10
2019-05-10T08:32:42.462Z,16.20
2019-05-10T08:35:16.821Z,16.20
2019-05-10T08:37:43.229Z,16.30
2019-05-10T08:40:12.894Z,16.50
2019-05-10T08:42:48.090Z,16.60
2019-05-10T08:45:12.613Z,16.60
2019-05-10T08:47:42.733Z,16.60
2019-05-10T08:50:29.118Z,16.60
2019-05-10T08:52:42.679Z,16.50
2019-05-10T08:55:12.302Z,16.40
2019-05-10T08:57:44.587Z,16.30
2019-05-10T09:00:13.240Z,16.30
2019-05-10T09:02:42.700Z,16.20
2019-05-10T09:05:12.559Z,16.30
2019-05-10T09:07:42.931Z,16.30
2019-05-10T09:10:12.772Z,16.40
2019-05-10T09:12:50.656Z,16.50
2019-05-10T09:15:13.720Z,16.60
2019-05-10T09:17:43.078Z,16.60
2019-05-10T09:20:21.058Z,16.50
2019-05-10T09:22:42.829Z,16.50
2019-05-10T09:25:12.989Z,16.50
2019-05-10T09:27:43.243Z,16.50
2019-05-10T09:30:18.096Z,16.50
2019-05-10T09:32:43.967Z,16.50
2019-05-10T09:35:13.850Z,16.50
2019-05-10T09:37:42.484Z,16.50
2019-05-10T09:40:13.320Z,16.50
2019-05-10T09:42:43.491Z,16.60
2019-05-10T09:45:13.257Z,16.70
2019-05-10T09:47:43.376Z,16.90
2019-05-10T09:50:13.038Z,17.20
2019-05-10T09:52:41.931Z,17.20
2019-05-10T09:55:14.705Z,17.20
2019-05-10T09:57:40.968Z,17.10
2019-05-10T10:00:11.731Z,17.00
2019-05-10T10:02:41.034Z,16.90
2019-05-10T10:05:09.978Z,16.70
2019-05-10T10:07:38.774Z,16.60
2019-05-10T10:10:12.605Z,16.50
2019-05-10T10:12:39.223Z,16.40
2019-05-10T10:15:10.677Z,16.40
2019-05-10T10:17:42.229Z,16.40
2019-05-10T10:20:08.858Z,16.30
2019-05-10T10:22:38.088Z,16.30
2019-05-10T10:25:07.659Z,16.30
2019-05-10T10:27:39.312Z,16.30
2019-05-10T10:30:12.872Z,16.20
2019-05-10T10:32:38.607Z,16.20
2019-05-10T10:35:07.920Z,16.20
2019-05-10T10:37:37.923Z,16.30
2019-05-10T10:40:09.097Z,16.30
2019-05-10T10:42:38.340Z,16.30
2019-05-10T10:45:08.609Z,16.30
2019-05-10T10:47:38.070Z,16.50
2019-05-10T10:50:13.157Z,16.70
2019-05-10T10:52:40.324Z,17.00
2019-05-10T10:55:13.340Z,17.20
2019-05-10T10:57:40.375Z,17.70
2019-05-10T11:00:10.896Z,18.20
2019-05-10T11:02:41.712Z,18.60
2019-05-10T11:05:10.358Z,18.80
2019-05-10T11:07:44.430Z,18.70
2019-05-10T11:10:17.896Z,18.80
2019-05-10T11:12:41.264Z,18.80
2019-05-10T11:15:11.406Z,19.00
2019-05-10T11:17:40.929Z,19.50
2019-05-10T11:20:11.519Z,19.90
2019-05-10T11:22:41.966Z,20.20
2019-05-10T11:25:12.835Z,20.30
2019-05-10T11:27:41.928Z,20.90
2019-05-10T11:30:12.184Z,21.60
2019-05-10T11:32:42.026Z,21.80
2019-05-10T11:35:16.963Z,22.00
2019-05-10T11:37:45.335Z,21.80
2019-05-10T11:40:18.134Z,21.60
2019-05-10T11:42:47.189Z,21.20
2019-05-10T11:45:14.461Z,21.00
2019-05-10T11:47:43.038Z,20.80
2019-05-10T11:50:27.659Z,20.10
2019-05-10T11:52:43.287Z,19.90
2019-05-10T11:55:13.547Z,19.90
2019-05-10T11:57:44.219Z,20.00
2019-05-10T12:00:24.531Z,19.90
2019-05-10T12:03:03.397Z,19.70
2019-05-10T12:05:20.090Z,19.40
2019-05-10T12:07:46.113Z,19.30
2019-05-10T12:10:20.997Z,19.20
2019-05-10T12:13:04.850Z,19.10
2019-05-10T12:15:15.723Z,19.10
2019-05-10T12:17:46.873Z,19.10
2019-05-10T12:22:47.526Z,18.90
2019-05-10T12:25:36.406Z,18.90
2019-05-10T12:26:50.470Z,19.00
2019-05-10T12:27:49.049Z,19.00
2019-05-10T12:30:17.339Z,19.40
2019-05-10T12:32:55.623Z,20.10
2019-05-10T12:35:16.360Z,20.80
2019-05-10T12:37:49.668Z,21.30
2019-05-10T12:40:15.556Z,21.80
2019-05-10T12:42:46.845Z,22.00
2019-05-10T12:45:15.207Z,21.90
2019-05-10T12:47:43.891Z,21.90
2019-05-10T12:50:12.940Z,21.80
2019-05-10T12:52:43.212Z,21.60
2019-05-10T12:55:15.247Z,21.50
2019-05-10T12:57:43.879Z,21.50
2019-05-10T13:00:15.900Z,21.40
2019-05-10T13:02:44.848Z,21.20
2019-05-10T13:05:15.601Z,20.70
2019-05-10T13:07:44.687Z,20.20
2019-05-10T13:10:13.705Z,19.90
2019-05-10T13:12:46.871Z,19.70
2019-05-10T13:15:13.500Z,19.50
2019-05-10T13:17:50.625Z,19.50
2019-05-10T13:20:13.581Z,19.60
2019-05-10T13:22:42.319Z,19.80
2019-05-10T13:25:11.590Z,20.10
2019-05-10T13:27:40.296Z,20.30
2019-05-10T13:30:09.815Z,20.60
2019-05-10T13:32:38.703Z,21.10
2019-05-10T13:35:07.607Z,21.60
2019-05-10T13:37:36.217Z,22.40
2019-05-10T13:40:08.070Z,23.50
2019-05-10T13:42:43.089Z,25.60
2019-05-10T13:45:07.657Z,26.40
2019-05-10T13:47:37.983Z,26.70
2019-05-10T13:50:11.139Z,27.50
2019-05-10T13:52:41.438Z,28.40
2019-05-10T13:55:10.595Z,28.60
2019-05-10T13:57:39.307Z,28.50
2019-05-10T14:00:09.095Z,28.60
2019-05-10T14:02:39.396Z,28.90
2019-05-10T14:05:12.006Z,28.60
2019-05-10T14:07:39.362Z,28.90
2019-05-10T14:10:08.632Z,29.60
2019-05-10T14:12:37.312Z,30.60
2019-05-10T14:15:12.875Z,31.10
2019-05-10T14:17:37.510Z,31.80
2019-05-10T14:20:19.398Z,32.10
2019-05-10T14:22:48.126Z,32.30
2019-05-10T14:25:12.179Z,32.50
2019-05-10T14:27:40.827Z,31.90
2019-05-10T14:30:13.323Z,30.90
2019-05-10T14:32:41.022Z,30.10
2019-05-10T14:35:09.802Z,29.10
2019-05-10T14:37:38.517Z,28.50
2019-05-10T14:40:08.051Z,27.60
2019-05-10T14:42:37.176Z,27.40
2019-05-10T14:45:06.472Z,27.00
2019-05-10T14:47:46.788Z,26.10
2019-05-10T14:50:07.319Z,25.20
2019-05-10T14:52:35.920Z,24.40
2019-05-10T14:55:06.856Z,23.70
2019-05-10T14:57:35.976Z,23.10
2019-05-10T15:00:06.847Z,22.60
2019-05-10T15:02:35.866Z,22.30
2019-05-10T15:05:08.906Z,22.00
2019-05-10T15:07:36.300Z,21.70
2019-05-10T15:10:07.669Z,21.70
2019-05-10T15:12:36.445Z,21.90
2019-05-10T15:15:06.471Z,23.30
2019-05-10T15:17:35.144Z,25.10
2019-05-10T15:20:07.323Z,26.20
2019-05-10T15:22:35.206Z,26.40
2019-05-10T15:25:05.096Z,27.10
2019-05-10T15:27:34.115Z,27.80
2019-05-10T15:30:05.096Z,28.40
2019-05-10T15:32:33.070Z,28.60
2019-05-10T15:35:07.661Z,27.90
2019-05-10T15:37:32.010Z,27.70
2019-05-10T15:40:05.967Z,27.40
2019-05-10T15:42:36.309Z,27.70
2019-05-10T15:45:05.286Z,28.30
2019-05-10T15:47:31.820Z,28.70
2019-05-10T15:50:01.838Z,28.10
2019-05-10T15:52:30.741Z,27.50
2019-05-10T15:54:59.252Z,26.60
2019-05-10T15:57:27.855Z,25.60
2019-05-10T15:59:58.993Z,24.60
2019-05-10T16:02:26.891Z,23.80
2019-05-10T16:04:57.420Z,23.20
2019-05-10T16:07:26.054Z,22.60
2019-05-10T16:09:56.176Z,22.30
2019-05-10T16:12:25.174Z,22.10
2019-05-10T16:14:53.828Z,22.10
2019-05-10T16:17:24.010Z,22.20
2019-05-10T16:19:59.681Z,22.80
2019-05-10T16:22:25.339Z,23.50
2019-05-10T16:25:00.205Z,24.00
2019-05-10T16:27:24.238Z,24.30
2019-05-10T16:29:52.909Z,24.50
2019-05-10T16:32:21.590Z,24.60
2019-05-10T16:34:50.166Z,24.60
2019-05-10T16:37:18.739Z,24.70
2019-05-10T16:39:47.471Z,24.70
2019-05-10T16:42:16.580Z,24.60
2019-05-10T16:44:45.316Z,24.70
2019-05-10T16:47:15.159Z,24.70
2019-05-10T16:49:47.793Z,24.70
2019-05-10T16:52:14.058Z,24.20
2019-05-10T16:54:43.656Z,23.70
2019-05-10T16:57:12.660Z,23.40
2019-05-10T16:59:41.249Z,23.10
2019-05-10T17:02:11.898Z,22.60
2019-05-10T17:04:40.305Z,22.20
2019-05-10T17:07:12.886Z,21.60
2019-05-10T17:09:39.229Z,21.10
2019-05-10T17:12:07.879Z,20.70
2019-05-10T17:14:36.569Z,20.50
2019-05-10T17:17:05.507Z,20.60
2019-05-10T17:19:36.071Z,20.60
2019-05-10T17:22:04.582Z,20.50
2019-05-10T17:24:33.183Z,20.20
2019-05-10T17:27:01.920Z,19.80
2019-05-10T17:29:30.619Z,19.40
2019-05-10T17:31:59.274Z,19.00
2019-05-10T17:34:29.697Z,18.80
2019-05-10T17:36:59.761Z,18.60
2019-05-10T17:39:32.024Z,18.30
2019-05-10T17:42:03.276Z,18.20
2019-05-10T17:44:30.854Z,18.10
2019-05-10T17:46:59.611Z,18.00
2019-05-10T17:49:28.329Z,18.00
2019-05-10T17:51:57.006Z,17.90
2019-05-10T17:54:25.688Z,17.70
2019-05-10T17:56:54.375Z,17.60
2019-05-10T17:59:23.260Z,17.50
2019-05-10T18:01:51.915Z,17.40
2019-05-10T18:04:20.937Z,17.20
2019-05-10T18:06:49.625Z,17.10
2019-05-10T18:09:20.111Z,17.00
2019-05-10T18:11:48.754Z,16.90
2019-05-10T18:14:18.216Z,16.80
2019-05-10T18:16:49.964Z,16.70
2019-05-10T18:19:19.161Z,16.60
2019-05-10T18:21:48.482Z,16.50
2019-05-10T18:24:17.115Z,16.40
2019-05-10T18:26:45.855Z,16.30
2019-05-10T18:29:16.071Z,16.20
2019-05-10T18:31:54.518Z,16.10
2019-05-10T18:34:14.983Z,16.00
2019-05-10T18:36:51.979Z,15.90
2019-05-10T18:39:24.521Z,15.80
2019-05-10T18:41:53.942Z,15.60
2019-05-10T18:44:22.931Z,15.50
2019-05-10T18:46:51.715Z,15.40
2019-05-10T18:49:20.443Z,15.30
2019-05-10T18:51:49.152Z,15.20
2019-05-10T18:54:17.942Z,15.20
2019-05-10T18:56:50.128Z,15.10
2019-05-10T18:59:19.022Z,15.10
2019-05-10T19:01:48.004Z,15.10
2019-05-10T19:04:16.683Z,15.10
2019-05-10T19:06:49.915Z,15.20
2019-05-10T19:09:16.826Z,15.20
2019-05-10T19:11:45.758Z,15.20
2019-05-10T19:14:14.857Z,15.10
2019-05-10T19:16:44.767Z,15.10
2019-05-10T19:19:13.406Z,15.00
2019-05-10T19:21:42.046Z,14.80
2019-05-10T19:24:10.687Z,14.70
2019-05-10T19:26:39.302Z,14.70
2019-05-10T19:29:07.929Z,14.60
2019-05-10T19:31:39.805Z,14.50
2019-05-10T19:34:09.246Z,14.40
2019-05-10T19:36:37.243Z,14.40
2019-05-10T19:39:07.436Z,14.30
2019-05-10T19:41:36.021Z,14.30
2019-05-10T19:44:04.873Z,14.20
2019-05-10T19:46:39.092Z,14.20
2019-05-10T19:49:07.430Z,14.10
2019-05-10T19:51:35.107Z,14.00
2019-05-10T19:54:04.178Z,14.00
2019-05-10T19:56:36.530Z,14.00
2019-05-10T19:59:05.514Z,14.00
2019-05-10T20:01:33.595Z,14.00
2019-05-10T20:04:02.241Z,13.90
2019-05-10T20:06:30.873Z,13.90
2019-05-10T20:08:59.661Z,13.80
2019-05-10T20:11:28.191Z,13.80
2019-05-10T20:13:56.875Z,13.70
2019-05-10T20:16:25.686Z,13.60
2019-05-10T20:18:54.270Z,13.50
2019-05-10T20:21:22.970Z,13.50
2019-05-10T20:23:51.534Z,13.40
2019-05-10T20:26:20.353Z,13.40
2019-05-10T20:28:48.985Z,13.30
2019-05-10T20:31:17.795Z,13.30
2019-05-10T20:33:46.410Z,13.30
2019-05-10T20:36:14.995Z,13.20
2019-05-10T20:38:43.567Z,13.10
2019-05-10T20:41:12.543Z,13.20
2019-05-10T20:43:41.218Z,13.10
2019-05-10T20:46:11.589Z,13.00
2019-05-10T20:48:40.257Z,13.00
2019-05-10T20:51:08.874Z,13.00
2019-05-10T20:53:37.523Z,13.00
2019-05-10T20:56:06.138Z,13.00
2019-05-10T20:58:34.722Z,13.00
2019-05-10T21:01:03.531Z,12.90
2019-05-10T21:03:32.132Z,12.90
2019-05-10T21:06:00.889Z,12.90
2019-05-10T21:08:29.520Z,13.00
2019-05-10T21:10:58.102Z,13.00
2019-05-10T21:13:26.784Z,13.00
2019-05-10T21:15:55.438Z,13.00
2019-05-10T21:18:24.047Z,12.90
2019-05-10T21:20:52.622Z,12.90
2019-05-10T21:23:22.768Z,12.80
2019-05-10T21:25:51.327Z,12.80
2019-05-10T21:28:19.969Z,12.60
2019-05-10T21:30:48.538Z,12.60
2019-05-10T21:33:17.294Z,12.60
2019-05-10T21:35:46.037Z,12.50
2019-05-10T21:38:14.606Z,12.50
2019-05-10T21:40:43.404Z,12.40
2019-05-10T21:43:11.993Z,12.40
2019-05-10T21:45:40.563Z,12.30
2019-05-10T21:48:09.185Z,12.30
2019-05-10T21:50:37.766Z,12.20
2019-05-10T21:53:06.517Z,12.10
2019-05-10T21:55:35.130Z,12.10
2019-05-10T21:58:03.781Z,12.10
2019-05-10T22:00:37.192Z,12.20
2019-05-10T22:03:05.983Z,12.30
2019-05-10T22:05:34.630Z,12.30
2019-05-10T22:08:03.240Z,12.30
2019-05-10T22:10:32.176Z,12.30
2019-05-10T22:13:00.745Z,12.30
2019-05-10T22:15:29.366Z,12.30
2019-05-10T22:17:57.928Z,12.30
2019-05-10T22:20:26.606Z,12.30
2019-05-10T22:22:55.239Z,12.30
2019-05-10T22:25:23.808Z,12.40
2019-05-10T22:27:52.411Z,12.50
2019-05-10T22:30:21.248Z,12.50
2019-05-10T22:32:49.847Z,12.50
2019-05-10T22:35:18.514Z,12.60
2019-05-10T22:37:47.471Z,12.70
2019-05-10T22:40:16.637Z,12.80
2019-05-10T22:42:45.275Z,12.80
2019-05-10T22:45:14.216Z,12.80
2019-05-10T22:47:43.239Z,12.70
2019-05-10T22:50:12.487Z,12.80
2019-05-10T22:52:41.363Z,12.80
2019-05-10T22:55:10.660Z,12.80
2019-05-10T22:57:39.303Z,12.80
2019-05-10T23:00:10.279Z,12.90
2019-05-10T23:02:38.907Z,12.80
2019-05-10T23:05:07.579Z,12.80
2019-05-10T23:07:36.170Z,12.80
2019-05-10T23:10:06.415Z,12.80
2019-05-10T23:12:35.008Z,12.80
2019-05-10T23:15:04.585Z,12.80
2019-05-10T23:17:33.219Z,12.80
2019-05-10T23:20:01.848Z,12.80
2019-05-10T23:22:30.487Z,12.80
2019-05-10T23:24:59.074Z,12.80
2019-05-10T23:27:27.718Z,12.70
2019-05-10T23:29:56.293Z,12.70
2019-05-10T23:32:24.914Z,12.70
2019-05-10T23:34:53.498Z,12.60
2019-05-10T23:37:22.142Z,12.60
2019-05-10T23:39:50.743Z,12.70
2019-05-10T23:42:19.809Z,12.60
2019-05-10T23:44:48.447Z,12.60
2019-05-10T23:47:17.089Z,12.60
2019-05-10T23:49:45.805Z,12.60
2019-05-10T23:52:14.401Z,12.50
2019-05-10T23:54:43.008Z,12.60
2019-05-10T23:57:11.578Z,12.60
2019-05-10T23:59:40.148Z,12.50
